Time;durP1;ratioP1;P1;durP2;ratioP2;P2;SDS_P1;SDS_P2;PMS_P1;PMS_P2;Temp;Humidity;BMP_temperature;BMP_pressure;BME280_temperature;BME280_humidity;BME280_pressure;Samples;Min_cycle;Max_cycle;Signal;HPM_P1;HPM_P2
2021/05/10 00:01:32;;;;;;;5.72;1.90;;;17.30;78.30;;;;;;6105147;23;20042;-83
2021/05/10 00:03:59;;;;;;;6.37;1.93;;;17.30;78.90;;;;;;6058288;23;20046;-83
2021/05/10 00:06:28;;;;;;;;;;;17.20;79.40;;;;;;6059622;23;20301;-84
2021/05/10 00:08:57;;;;;;;3.33;1.80;;;17.10;80.00;;;;;;6087468;23;19936;-84
2021/05/10 00:11:24;;;;;;;3.50;1.80;;;17.10;80.70;;;;;;6069699;23;20033;-83
2021/05/10 00:13:54;;;;;;;3.97;1.80;;;17.00;81.20;;;;;;6094245;23;20029;-84
2021/05/10 00:16:26;;;;;;;3.35;1.67;;;17.00;81.90;;;;;;6072349;23;20013;-84
2021/05/10 00:18:53;;;;;;;6.35;2.00;;;16.90;82.30;;;;;;6071442;23;20017;-84
2021/05/10 00:21:23;;;;;;;4.57;1.55;;;16.90;82.80;;;;;;6069299;23;20010;-84
2021/05/10 00:23:52;;;;;;;4.50;1.75;;;16.80;83.80;;;;;;6113326;23;20010;-84
2021/05/10 00:26:20;;;;;;;4.47;1.70;;;16.80;83.90;;;;;;6059875;23;20048;-83
2021/05/10 00:28:49;;;;;;;6.10;1.60;;;16.70;84.30;;;;;;6081547;23;20358;-83
2021/05/10 00:31:20;;;;;;;2.97;1.58;;;16.70;85.00;;;;;;6057284;23;20042;-83
2021/05/10 00:33:47;;;;;;;4.45;1.77;;;16.60;85.40;;;;;;6079958;23;20042;-83
2021/05/10 00:36:14;;;;;;;3.92;1.70;;;16.60;85.70;;;;;;6080991;23;20375;-83
2021/05/10 00:38:42;;;;;;;4.00;1.63;;;16.60;86.50;;;;;;6106241;23;20042;-84
2021/05/10 00:41:09;;;;;;;3.45;1.60;;;16.50;86.80;;;;;;6057479;23;20338;-84
2021/05/10 00:43:36;;;;;;;6.57;1.60;;;16.50;87.20;;;;;;6106108;23;20050;-84
2021/05/10 00:46:03;;;;;;;3.03;1.40;;;16.50;87.90;;;;;;6056347;23;20050;-85
2021/05/10 00:48:32;;;;;;;3.40;1.63;;;16.40;88.40;;;;;;6079989;23;20062;-84
2021/05/10 00:50:59;;;;;;;4.95;1.90;;;16.40;88.50;;;;;;6081490;23;20065;-85
2021/05/10 00:53:27;;;;;;;2.63;1.50;;;16.40;88.60;;;;;;6082812;23;20046;-85
2021/05/10 00:55:55;;;;;;;4.78;2.00;;;16.30;89.20;;;;;;6057602;23;20255;-85
2021/05/10 00:58:25;;;;;;;7.15;2.00;;;16.30;89.30;;;;;;6105865;23;20018;-85
2021/05/10 01:00:53;;;;;;;3.65;1.60;;;16.30;89.80;;;;;;6056721;23;20092;-85
2021/05/10 01:03:22;;;;;;;3.88;1.45;;;16.20;90.10;;;;;;6103653;23;20034;-85
2021/05/10 01:05:51;;;;;;;3.95;1.80;;;16.20;90.30;;;;;;6056152;23;20251;-84
2021/05/10 01:08:21;;;;;;;4.55;1.90;;;16.20;90.50;;;;;;6103563;23;20039;-84
2021/05/10 01:10:48;;;;;;;4.05;1.63;;;16.10;90.80;;;;;;6067391;23;20006;-85
2021/05/10 01:13:19;;;;;;;3.28;1.45;;;16.00;91.10;;;;;;6095486;23;20018;-83
2021/05/10 01:15:50;;;;;;;3.88;1.70;;;16.00;91.30;;;;;;6085428;23;20317;-83
2021/05/10 01:18:18;;;;;;;5.45;1.52;;;16.00;91.50;;;;;;6082756;23;20039;-84
2021/05/10 01:20:48;;;;;;;3.13;1.70;;;16.00;91.50;;;;;;6082930;23;20025;-84
2021/05/10 01:23:17;;;;;;;3.33;1.77;;;16.00;91.60;;;;;;6081487;23;20046;-85
2021/05/10 01:25:47;;;;;;;2.53;1.55;;;16.00;91.40;;;;;;6057919;23;20046;-85
2021/05/10 01:28:17;;;;;;;3.97;1.70;;;16.00;91.50;;;;;;6080655;23;20059;-83
2021/05/10 01:30:51;;;;;;;10.18;1.80;;;16.00;91.60;;;;;;6080131;23;20045;-84
2021/05/10 01:33:19;;;;;;;;;;;15.90;91.60;;;;;;6057291;23;20046;-84
2021/05/10 01:35:48;;;;;;;4.55;1.80;;;15.90;91.70;;;;;;6080904;23;19953;-85
2021/05/10 01:38:17;;;;;;;3.85;1.40;;;15.90;91.70;;;;;;6081063;23;20062;-85
2021/05/10 01:40:47;;;;;;;3.88;1.80;;;15.90;91.80;;;;;;6080053;23;20046;-85
2021/05/10 01:43:17;;;;;;;6.00;1.80;;;15.80;91.90;;;;;;6057462;23;20245;-84
2021/05/10 01:45:50;;;;;;;6.70;1.80;;;15.80;92.00;;;;;;6081139;23;20321;-85
2021/05/10 01:48:17;;;;;;;4.15;1.50;;;15.80;92.10;;;;;;6079364;23;20038;-85
2021/05/10 01:50:47;;;;;;;4.78;1.80;;;15.70;92.20;;;;;;6080880;23;20042;-85
2021/05/10 01:53:15;;;;;;;3.67;1.52;;;15.70;92.20;;;;;;6080866;23;20074;-84
2021/05/10 01:55:45;;;;;;;3.70;1.70;;;15.70;92.40;;;;;;6082700;23;20066;-85
2021/05/10 01:58:14;;;;;;;4.78;1.85;;;15.70;92.60;;;;;;6081469;23;20050;-85
2021/05/10 02:00:44;;;;;;;3.00;1.85;;;15.60;92.90;;;;;;6081324;23;20053;-86
2021/05/10 02:03:16;;;;;;;2.88;1.52;;;15.60;92.90;;;;;;6081404;23;20046;-86
2021/05/10 02:05:50;;;;;;;3.85;1.65;;;15.60;93.10;;;;;;6058000;23;20269;-86
2021/05/10 02:08:19;;;;;;;4.88;1.80;;;15.60;93.40;;;;;;6057243;23;20414;-85
2021/05/10 02:10:49;;;;;;;8.52;2.30;;;15.50;93.50;;;;;;6058097;23;20042;-85
2021/05/10 02:13:21;;;;;;;4.47;1.75;;;15.60;93.70;;;;;;6082528;23;20261;-85
2021/05/10 02:15:51;;;;;;;2.63;1.40;;;15.50;93.90;;;;;;6083782;23;20042;-85
2021/05/10 02:18:22;;;;;;;4.28;1.70;;;15.30;94.20;;;;;;6061628;23;20291;-85
2021/05/10 02:20:50;;;;;;;3.60;1.48;;;15.40;94.40;;;;;;6064981;23;20086;-85
2021/05/10 02:23:20;;;;;;;3.33;1.70;;;15.30;94.70;;;;;;6084626;23;20069;-85
2021/05/10 02:25:51;;;;;;;8.80;1.83;;;15.20;95.10;;;;;;6083148;23;20050;-84
2021/05/10 02:28:23;;;;;;;4.10;1.60;;;15.10;95.10;;;;;;6060051;23;20042;-84
2021/05/10 02:30:53;;;;;;;11.15;2.92;;;15.10;95.70;;;;;;6058418;23;20046;-84
2021/05/10 02:33:22;;;;;;;3.42;1.50;;;15.10;96.10;;;;;;6081327;23;20046;-84
2021/05/10 02:35:53;;;;;;;4.38;2.10;;;15.00;96.40;;;;;;6081325;23;20047;-85
2021/05/10 02:38:21;;;;;;;6.35;1.95;;;15.00;96.20;;;;;;6058203;23;20050;-84
2021/05/10 02:40:50;;;;;;;5.88;1.77;;;15.30;96.10;;;;;;6104784;23;20042;-85
2021/05/10 02:43:18;;;;;;;3.88;2.00;;;15.30;96.20;;;;;;6059502;23;20038;-85
2021/05/10 02:45:46;;;;;;;6.70;3.77;;;15.10;96.70;;;;;;6059215;23;20054;-85
2021/05/10 02:48:14;;;;;;;5.15;2.25;;;15.10;97.10;;;;;;6082295;23;20298;-85
2021/05/10 02:50:42;;;;;;;7.25;2.40;;;14.90;97.40;;;;;;6057317;23;20265;-85
2021/05/10 02:53:29;;;;;;;6.82;2.10;;;14.90;97.70;;;;;;6086791;23;20046;-85
2021/05/10 02:55:57;;;;;;;4.80;2.15;;;14.90;98.10;;;;;;6082920;23;20042;-86
2021/05/10 02:58:27;;;;;;;6.28;2.38;;;14.90;98.30;;;;;;6084317;23;20121;-85
2021/05/10 03:00:54;;;;;;;6.18;2.50;;;14.90;98.50;;;;;;6074379;23;20021;-85
2021/05/10 03:03:21;;;;;;;12.60;2.63;;;14.80;98.90;;;;;;6127443;23;20021;-85
2021/05/10 03:05:48;;;;;;;12.15;2.08;;;14.80;99.30;;;;;;6089270;23;20047;-85
2021/05/10 03:08:16;;;;;;;8.27;2.47;;;14.90;99.40;;;;;;6036946;23;20042;-84
2021/05/10 03:10:45;;;;;;;10.60;5.38;;;14.90;99.50;;;;;;6083115;23;20042;-85
2021/05/10 03:13:14;;;;;;;8.88;3.28;;;14.90;99.70;;;;;;6058480;23;20066;-85
2021/05/10 03:15:41;;;;;;;7.32;2.13;;;14.90;99.90;;;;;;6053524;23;20054;-86
2021/05/10 03:18:08;;;;;;;6.47;2.55;;;14.80;99.90;;;;;;6055683;23;20021;-86
2021/05/10 03:20:38;;;;;;;4.72;2.10;;;14.80;99.90;;;;;;6055059;23;20047;-85
2021/05/10 03:23:05;;;;;;;8.48;2.97;;;14.80;99.90;;;;;;6077355;23;20086;-84
2021/05/10 03:25:32;;;;;;;16.23;3.53;;;14.80;99.90;;;;;;6052746;23;20039;-85
2021/05/10 03:28:00;;;;;;;5.75;2.70;;;14.80;99.90;;;;;;6078009;23;20046;-85
2021/05/10 03:30:29;;;;;;;6.18;2.42;;;14.80;99.90;;;;;;6053104;23;20105;-85
2021/05/10 03:32:58;;;;;;;5.10;2.58;;;14.80;99.90;;;;;;6100073;23;20316;-85
2021/05/10 03:35:25;;;;;;;18.80;9.25;;;14.80;99.90;;;;;;6076925;23;20046;-85
2021/05/10 03:37:52;;;;;;;5.55;2.17;;;14.80;99.90;;;;;;6101631;23;20043;-84
2021/05/10 03:40:21;;;;;;;11.30;5.15;;;14.80;99.90;;;;;;6030498;23;20035;-86
2021/05/10 03:42:53;;;;;;;10.27;5.85;;;14.70;99.90;;;;;;6078710;23;20042;-85
2021/05/10 03:45:22;;;;;;;14.32;3.78;;;14.70;99.90;;;;;;6053178;23;20051;-85
2021/05/10 03:47:50;;;;;;;5.95;2.13;;;14.70;99.90;;;;;;6076660;23;20042;-86
2021/05/10 03:50:20;;;;;;;5.38;2.15;;;14.60;99.90;;;;;;6052146;23;20047;-85
2021/05/10 03:52:50;;;;;;;4.22;1.98;;;14.60;99.90;;;;;;6098293;23;20050;-86
2021/05/10 03:55:23;;;;;;;5.60;2.53;;;14.70;99.90;;;;;;6099513;23;20042;-86
2021/05/10 03:57:52;;;;;;;9.18;2.47;;;14.60;99.90;;;;;;6076372;23;20130;-87
2021/05/10 04:00:20;;;;;;;6.32;2.55;;;14.60;99.90;;;;;;6079594;23;20047;-87
2021/05/10 04:02:47;;;;;;;4.28;2.30;;;14.70;99.90;;;;;;6077576;23;20035;-86
2021/05/10 04:05:34;;;;;;;10.57;2.20;;;14.80;99.90;;;;;;6077261;23;20046;-86
2021/05/10 04:08:08;;;;;;;5.88;3.10;;;14.90;99.90;;;;;;6054381;23;20105;-86
2021/05/10 04:10:44;;;;;;;8.68;4.18;;;15.00;99.90;;;;;;6055706;23;20055;-85
2021/05/10 04:16:11;;;;;;;8.00;2.10;;;15.20;99.90;;;;;;5938605;24;20095;-85
2021/05/10 04:18:38;;;;;;;4.68;2.00;;;15.10;99.90;;;;;;6002251;23;20372;-86
2021/05/10 04:21:08;;;;;;;2.83;1.70;;;15.30;99.50;;;;;;6026683;23;20047;-86
2021/05/10 04:23:35;;;;;;;7.18;2.00;;;15.40;99.40;;;;;;6033377;23;20011;-85
2021/05/10 04:26:03;;;;;;;8.07;2.03;;;15.50;99.20;;;;;;6057021;23;20047;-84
2021/05/10 04:28:34;;;;;;;12.25;3.65;;;15.60;98.90;;;;;;6026853;23;20007;-85
2021/05/10 04:31:09;;;;;;;10.70;4.75;;;15.70;98.60;;;;;;6049406;23;20054;-85
2021/05/10 04:33:39;;;;;;;10.18;3.35;;;15.80;98.20;;;;;;6071185;23;20046;-84
2021/05/10 04:36:09;;;;;;;7.80;2.58;;;15.90;97.80;;;;;;6024496;23;20051;-84
2021/05/10 04:38:40;;;;;;;;;;;16.00;97.40;;;;;;6024983;23;20043;-85
2021/05/10 04:41:07;;;;;;;12.68;6.10;;;16.10;96.90;;;;;;6048547;23;19950;-85
2021/05/10 04:43:34;;;;;;;4.38;1.80;;;16.10;97.10;;;;;;6023690;23;20099;-84
2021/05/10 04:46:02;;;;;;;4.60;2.20;;;16.20;96.40;;;;;;6024094;23;20055;-83
2021/05/10 04:48:30;;;;;;;4.90;1.85;;;16.30;96.30;;;;;;6048435;23;20043;-85
2021/05/10 04:50:59;;;;;;;7.00;2.00;;;16.40;95.60;;;;;;6025171;23;20043;-85
2021/05/10 04:53:27;;;;;;;4.75;2.08;;;16.50;95.20;;;;;;6048401;23;20051;-85
2021/05/10 04:55:54;;;;;;;6.00;2.40;;;16.50;95.10;;;;;;6024899;23;20051;-85
2021/05/10 04:58:21;;;;;;;7.00;1.95;;;16.60;95.00;;;;;;6024178;23;20303;-85
2021/05/10 05:00:49;;;;;;;7.22;1.83;;;16.70;94.40;;;;;;6047380;23;20060;-85
2021/05/10 05:03:20;;;;;;;5.60;1.90;;;16.80;94.10;;;;;;6001180;23;20050;-85
2021/05/10 05:05:47;;;;;;;4.65;1.52;;;16.90;93.90;;;;;;6047686;23;20067;-85
2021/05/10 05:08:16;;;;;;;3.88;2.05;;;17.00;93.30;;;;;;6024173;23;20043;-84
2021/05/10 05:10:44;;;;;;;9.17;2.00;;;17.20;93.20;;;;;;6003251;23;20259;-87
2021/05/10 05:13:21;;;;;;;5.05;1.67;;;17.40;92.00;;;;;;6049237;23;20294;-83
2021/05/10 05:15:50;;;;;;;11.30;2.10;;;17.60;91.40;;;;;;6048913;23;20039;-82
2021/05/10 05:18:24;;;;;;;4.80;1.77;;;17.70;90.90;;;;;;6049566;23;20047;-84
2021/05/10 05:20:58;;;;;;;16.52;2.10;;;17.70;90.90;;;;;;6052430;23;20047;-84
2021/05/10 05:23:29;;;;;;;8.52;1.77;;;17.70;90.80;;;;;;6056695;23;20015;-84
2021/05/10 05:26:02;;;;;;;8.00;3.60;;;17.70;90.80;;;;;;6056688;23;20019;-86
2021/05/10 05:28:30;;;;;;;6.05;1.80;;;17.80;90.50;;;;;;6026736;23;20043;-86
2021/05/10 05:31:01;;;;;;;5.63;1.80;;;17.80;90.10;;;;;;6027521;23;20011;-85
2021/05/10 05:33:31;;;;;;;4.15;1.75;;;17.90;89.60;;;;;;6049003;23;20047;-85
2021/05/10 05:35:58;;;;;;;4.55;1.83;;;18.00;89.30;;;;;;6050130;23;20030;-85
2021/05/10 05:38:27;;;;;;;4.68;1.65;;;18.10;88.80;;;;;;6024664;23;20039;-84
2021/05/10 05:40:55;;;;;;;4.97;1.55;;;18.10;88.50;;;;;;6048559;23;20015;-84
2021/05/10 05:43:25;;;;;;;5.05;1.25;;;18.20;87.70;;;;;;5978294;23;20059;-84
2021/05/10 05:45:52;;;;;;;5.55;2.00;;;18.30;87.30;;;;;;6025311;23;20046;-83
2021/05/10 05:48:21;;;;;;;6.20;1.67;;;18.30;87.00;;;;;;6024853;23;20043;-84
2021/05/10 05:50:48;;;;;;;7.40;1.80;;;18.40;86.50;;;;;;6024913;23;20047;-83
2021/05/10 05:53:20;;;;;;;7.60;2.17;;;18.30;86.40;;;;;;6024149;23;20047;-86
2021/05/10 05:55:47;;;;;;;8.48;2.10;;;18.30;85.70;;;;;;6024127;23;20039;-85
2021/05/10 05:58:16;;;;;;;4.28;1.67;;;18.20;85.70;;;;;;6023724;23;20047;-84
2021/05/10 06:00:47;;;;;;;7.22;1.73;;;18.30;84.50;;;;;;6001115;23;20051;-84
2021/05/10 06:03:16;;;;;;;10.23;2.38;;;18.30;84.00;;;;;;6049035;23;20043;-84
2021/05/10 06:05:47;;;;;;;4.30;1.60;;;18.30;83.80;;;;;;6047726;23;20053;-83
2021/05/10 06:08:14;;;;;;;4.72;1.70;;;18.30;83.90;;;;;;6048090;23;20015;-86
2021/05/10 06:10:42;;;;;;;2.77;1.67;;;18.50;83.70;;;;;;6072213;23;20054;-83
2021/05/10 06:13:11;;;;;;;8.25;2.45;;;18.60;83.30;;;;;;6025050;23;20039;-84
2021/05/10 06:15:38;;;;;;;7.03;2.17;;;18.70;82.20;;;;;;6053422;23;20058;-84
2021/05/10 06:18:09;;;;;;;4.95;1.60;;;18.80;82.40;;;;;;6055686;23;20113;-85
2021/05/10 06:20:37;;;;;;;3.80;1.70;;;18.80;82.40;;;;;;6076906;23;20262;-83
2021/05/10 06:23:05;;;;;;;8.52;2.30;;;19.00;81.40;;;;;;6083744;23;20019;-84
2021/05/10 06:25:33;;;;;;;8.48;3.55;;;19.20;80.90;;;;;;6067928;23;20014;-84
2021/05/10 06:28:01;;;;;;;3.95;2.03;;;19.30;80.30;;;;;;6087558;23;20070;-82
2021/05/10 06:30:28;;;;;;;3.50;1.67;;;19.40;79.40;;;;;;6055845;23;20018;-83
2021/05/10 06:32:56;;;;;;;7.28;1.98;;;19.60;78.60;;;;;;6054806;23;20054;-85
2021/05/10 06:35:26;;;;;;;7.88;2.67;;;19.60;77.50;;;;;;6054678;23;20047;-83
2021/05/10 06:37:55;;;;;;;4.90;2.13;;;19.70;77.90;;;;;;6078648;23;20075;-83
2021/05/10 06:40:22;;;;;;;6.38;2.15;;;19.70;77.70;;;;;;6077720;23;20103;-83
2021/05/10 06:42:50;;;;;;;7.75;1.85;;;19.70;77.00;;;;;;6052615;23;20359;-83
2021/05/10 06:45:17;;;;;;;4.25;1.77;;;19.70;77.00;;;;;;6028792;23;20047;-82
2021/05/10 06:47:48;;;;;;;6.10;1.40;;;19.80;76.80;;;;;;6053041;23;20043;-83
2021/05/10 06:50:15;;;;;;;5.82;1.75;;;19.80;76.60;;;;;;6051404;23;20051;-84
2021/05/10 06:52:43;;;;;;;7.57;1.70;;;19.80;76.20;;;;;;6075096;23;20042;-81
2021/05/10 06:55:13;;;;;;;4.50;1.85;;;19.80;76.20;;;;;;6100603;23;20050;-86
2021/05/10 06:57:41;;;;;;;4.45;1.63;;;19.80;76.00;;;;;;6076555;23;20244;-84
2021/05/10 07:00:17;;;;;;;6.15;1.67;;;19.80;76.00;;;;;;6053909;23;20042;-84
2021/05/10 07:02:48;;;;;;;6.90;1.60;;;19.90;75.80;;;;;;6055328;23;20054;-85
2021/05/10 07:05:18;;;;;;;4.80;1.70;;;19.90;75.40;;;;;;6101506;23;20250;-86
2021/05/10 07:07:46;;;;;;;5.60;2.50;;;20.00;74.30;;;;;;6082204;23;20067;-86
2021/05/10 07:10:15;;;;;;;8.05;1.98;;;20.00;73.70;;;;;;6083225;23;20010;-83
2021/05/10 07:12:43;;;;;;;5.93;1.73;;;20.10;73.00;;;;;;6079508;23;20043;-85
2021/05/10 07:15:13;;;;;;;9.52;1.70;;;20.10;72.60;;;;;;6104069;23;20022;-86
2021/05/10 07:17:41;;;;;;;4.22;1.67;;;20.20;72.10;;;;;;6116279;23;20014;-83
2021/05/10 07:20:29;;;;;;;5.50;1.83;;;20.30;72.10;;;;;;6062689;23;20042;-86
2021/05/10 07:23:08;;;;;;;10.73;5.70;;;20.30;71.80;;;;;;6094283;23;20026;-93
2021/05/10 07:25:42;;;;;;;3.05;1.75;;;20.50;76.60;;;;;;6094924;23;20322;-92
2021/05/10 07:28:10;;;;;;;6.50;1.75;;;20.60;72.30;;;;;;6049970;23;20010;-94
2021/05/10 07:30:50;;;;;;;;;;;20.70;72.00;;;;;;6121345;23;20022;-93
2021/05/10 07:33:22;;;;;;;4.95;1.95;;;20.80;73.00;;;;;;6071800;23;20176;-90
2021/05/10 07:35:53;;;;;;;6.78;1.73;;;20.80;72.40;;;;;;6092255;23;20030;-92
2021/05/10 07:38:28;;;;;;;10.32;1.90;;;20.70;71.90;;;;;;6097336;23;20010;-93
2021/05/10 07:40:57;;;;;;;4.13;1.50;;;20.90;74.50;;;;;;6068759;23;20022;-87
2021/05/10 07:43:27;;;;;;;8.88;2.10;;;21.00;73.00;;;;;;6046730;23;20003;-91
2021/05/10 07:46:00;;;;;;;5.80;2.20;;;21.20;74.90;;;;;;6049664;23;20007;-92
2021/05/10 07:48:28;;;;;;;8.60;2.70;;;21.30;74.20;;;;;;6094365;23;20014;-91
2021/05/10 07:50:56;;;;;;;4.63;1.90;;;21.40;71.30;;;;;;6046034;23;20018;-91
2021/05/10 07:53:51;;;;;;;;;;;21.40;71.50;;;;;;6039530;23;20011;-91
2021/05/10 07:56:20;;;;;;;6.03;1.70;;;21.50;73.20;;;;;;6065479;23;19936;-91
2021/05/10 07:58:48;;;;;;;8.35;2.03;;;21.60;70.60;;;;;;6069535;23;20010;-90
2021/05/10 08:01:16;;;;;;;11.13;2.00;;;21.70;70.60;;;;;;6094792;23;20019;-89
2021/05/10 08:03:52;;;;;;;5.25;1.80;;;21.70;70.70;;;;;;6070768;23;20018;-87
2021/05/10 08:06:26;;;;;;;7.63;1.95;;;21.70;72.00;;;;;;6040783;23;20007;-91
2021/05/10 08:08:56;;;;;;;6.35;1.50;;;21.90;71.00;;;;;;6040803;23;20015;-90
2021/05/10 08:11:32;;;;;;;5.32;1.83;;;21.80;70.50;;;;;;6067412;23;20014;-88
2021/05/10 08:14:01;;;;;;;6.47;2.20;;;21.80;71.10;;;;;;5998382;23;20014;-91
2021/05/10 08:16:29;;;;;;;3.47;1.70;;;21.90;70.40;;;;;;6043025;23;20018;-91
2021/05/10 08:19:02;;;;;;;5.30;1.80;;;22.00;70.30;;;;;;6068670;23;20003;-91
2021/05/10 08:21:36;;;;;;;8.38;1.60;;;22.10;70.00;;;;;;6044921;23;20019;-90
2021/05/10 08:24:06;;;;;;;5.32;1.48;;;22.10;69.60;;;;;;6043842;23;20015;-91
2021/05/10 08:26:42;;;;;;;6.35;1.80;;;22.30;70.00;;;;;;6043660;23;20011;-91
2021/05/10 08:29:11;;;;;;;3.03;1.40;;;22.30;68.90;;;;;;6067204;23;20021;-89
2021/05/10 08:31:45;;;;;;;5.35;1.90;;;22.30;69.90;;;;;;6018666;23;20220;-88
2021/05/10 08:34:13;;;;;;;8.98;2.08;;;22.40;69.60;;;;;;6060720;23;20021;-87
2021/05/10 08:36:44;;;;;;;5.20;1.63;;;22.60;68.90;;;;;;6109176;23;20049;-88
2021/05/10 08:39:13;;;;;;;4.10;1.60;;;22.80;68.40;;;;;;6037222;23;20015;-87
2021/05/10 08:41:46;;;;;;;4.00;1.70;;;22.90;68.20;;;;;;6068908;23;20015;-90
2021/05/10 08:44:24;;;;;;;9.38;1.95;;;23.10;68.00;;;;;;6068890;23;20074;-89
2021/05/10 08:46:56;;;;;;;8.38;1.95;;;23.00;67.70;;;;;;6042737;23;20078;-88
2021/05/10 08:49:24;;;;;;;5.95;1.80;;;23.00;68.20;;;;;;6043240;23;20017;-87
2021/05/10 08:52:56;;;;;;;8.60;1.58;;;23.20;68.00;;;;;;6049344;23;20010;-90
2021/05/10 08:55:27;;;;;;;3.72;1.52;;;23.40;67.70;;;;;;6036722;23;20018;-88
2021/05/10 08:57:59;;;;;;;7.68;1.80;;;23.60;66.70;;;;;;6125194;23;20009;-79
2021/05/10 09:00:26;;;;;;;3.50;1.55;;;23.80;66.10;;;;;;6097998;23;20364;-82
2021/05/10 09:03:10;;;;;;;7.75;1.60;;;24.10;65.50;;;;;;6071227;23;20010;-81
2021/05/10 09:05:49;;;;;;;2.55;1.38;;;24.40;64.60;;;;;;6088324;23;20018;-81
2021/05/10 09:08:17;;;;;;;8.63;1.50;;;24.50;63.90;;;;;;6061154;23;20049;-83
2021/05/10 09:11:10;;;;;;;7.13;2.00;;;24.60;63.50;;;;;;6057543;23;20069;-83
2021/05/10 09:13:44;;;;;;;6.82;2.05;;;24.60;63.80;;;;;;6057964;23;20038;-85
2021/05/10 09:16:34;;;;;;;6.53;1.98;;;24.60;64.10;;;;;;6057387;23;20038;-84
2021/05/10 09:19:03;;;;;;;7.80;1.80;;;24.70;63.70;;;;;;6078233;23;20051;-81
2021/05/10 09:21:31;;;;;;;5.13;1.90;;;24.80;61.30;;;;;;6080164;23;20038;-83
2021/05/10 09:23:58;;;;;;;8.43;3.15;;;24.80;59.20;;;;;;6058559;23;20075;-83
2021/05/10 09:26:31;;;;;;;6.80;1.67;;;24.80;58.50;;;;;;6058567;23;20046;-84
2021/05/10 09:29:01;;;;;;;8.00;2.53;;;24.90;57.80;;;;;;6087173;23;20018;-83
2021/05/10 09:31:30;;;;;;;13.32;3.25;;;25.10;57.80;;;;;;6068496;23;20002;-84
2021/05/10 09:34:02;;;;;;;4.93;1.60;;;25.00;57.20;;;;;;6060253;23;20022;-85
2021/05/10 09:36:36;;;;;;;4.55;1.90;;;24.70;57.70;;;;;;6083511;23;20050;-84
2021/05/10 09:39:06;;;;;;;5.13;2.20;;;24.80;57.80;;;;;;6082140;23;20054;-86
2021/05/10 09:41:34;;;;;;;7.20;3.17;;;24.70;57.80;;;;;;6080439;23;20275;-85
2021/05/10 09:44:05;;;;;;;9.80;2.30;;;24.80;57.80;;;;;;6057333;23;20042;-84
2021/05/10 09:46:40;;;;;;;10.95;2.05;;;24.80;57.40;;;;;;6076889;23;20051;-84
2021/05/10 09:49:09;;;;;;;9.27;3.08;;;25.10;57.00;;;;;;6058172;23;20518;-84
2021/05/10 09:51:38;;;;;;;8.48;1.98;;;25.50;56.30;;;;;;6078788;23;20346;-84
2021/05/10 09:54:12;;;;;;;3.97;1.83;;;25.70;55.40;;;;;;6078559;23;20047;-85
2021/05/10 09:56:40;;;;;;;5.82;1.67;;;25.90;54.70;;;;;;6052516;23;20059;-84
2021/05/10 09:59:13;;;;;;;5.97;1.50;;;26.10;54.50;;;;;;6050313;23;20059;-84
2021/05/10 10:01:44;;;;;;;6.10;1.50;;;26.20;54.20;;;;;;6028793;23;20042;-83
2021/05/10 10:04:13;;;;;;;5.03;1.90;;;26.60;54.00;;;;;;6052741;23;20048;-84
2021/05/10 10:06:44;;;;;;;16.08;3.97;;;26.30;53.10;;;;;;6007782;23;20382;-85
2021/05/10 10:09:12;;;;;;;13.10;2.75;;;26.10;53.10;;;;;;6028758;23;20043;-84
2021/05/10 10:11:40;;;;;;;9.73;2.20;;;26.20;53.30;;;;;;6027141;23;20058;-84
2021/05/10 10:14:10;;;;;;;8.25;1.92;;;26.30;52.90;;;;;;6050486;23;20265;-84
2021/05/10 10:16:38;;;;;;;5.93;1.77;;;26.50;52.10;;;;;;6077296;23;20265;-84
2021/05/10 10:19:08;;;;;;;4.38;1.70;;;26.40;52.50;;;;;;6051423;23;20047;-84
2021/05/10 10:21:40;;;;;;;5.57;1.58;;;26.50;52.40;;;;;;6053093;23;20059;-82
2021/05/10 10:24:09;;;;;;;4.47;1.60;;;27.30;51.40;;;;;;6029364;23;20339;-84
2021/05/10 10:26:39;;;;;;;4.40;1.70;;;27.50;50.00;;;;;;6028504;23;20038;-84
2021/05/10 10:29:10;;;;;;;7.05;2.67;;;27.80;49.80;;;;;;6052176;23;20035;-82
2021/05/10 10:31:44;;;;;;;4.60;1.35;;;28.60;48.70;;;;;;6055036;23;20074;-84
2021/05/10 10:34:15;;;;;;;6.10;1.40;;;28.90;47.70;;;;;;6052056;23;20047;-83
2021/05/10 10:36:48;;;;;;;5.43;1.80;;;29.00;47.10;;;;;;6032279;23;20062;-82
2021/05/10 10:39:20;;;;;;;5.65;1.85;;;29.70;47.10;;;;;;6079600;23;20039;-82
2021/05/10 10:41:53;;;;;;;9.23;2.13;;;31.10;45.50;;;;;;6008874;23;20359;-82
2021/05/10 10:44:36;;;;;;;6.10;1.60;;;32.30;43.10;;;;;;6075149;23;20444;-82
2021/05/10 10:47:10;;;;;;;3.08;1.38;;;33.40;41.40;;;;;;6006366;23;20075;-82
2021/05/10 10:49:40;;;;;;;6.97;1.95;;;33.40;41.00;;;;;;6050203;23;20046;-81
2021/05/10 10:52:19;;;;;;;5.78;1.60;;;31.60;42.30;;;;;;6052379;23;20058;-82
2021/05/10 10:55:15;;;;;;;5.68;2.17;;;30.40;44.30;;;;;;6034986;23;20047;-84
2021/05/10 10:57:44;;;;;;;6.20;1.92;;;31.60;43.30;;;;;;6083174;23;20046;-86
2021/05/10 11:00:19;;;;;;;6.15;1.92;;;31.70;42.80;;;;;;6060582;23;20042;-85
2021/05/10 11:02:53;;;;;;;5.03;1.90;;;30.80;44.50;;;;;;6083723;23;20358;-82
2021/05/10 11:05:40;;;;;;;6.63;1.65;;;31.70;43.60;;;;;;6045437;23;20027;-83
2021/05/10 11:08:14;;;;;;;6.57;1.40;;;32.70;42.60;;;;;;6098197;23;20050;-84
2021/05/10 11:10:48;;;;;;;3.15;1.30;;;32.60;41.80;;;;;;6117949;23;20018;-83
2021/05/10 11:13:37;;;;;;;4.55;1.83;;;31.40;42.10;;;;;;6091779;23;20002;-84
2021/05/10 11:16:07;;;;;;;5.55;1.80;;;31.90;42.70;;;;;;6091100;23;20013;-84
2021/05/10 11:18:49;;;;;;;8.60;1.77;;;32.30;42.50;;;;;;6066915;23;20010;-85
2021/05/10 11:21:40;;;;;;;9.18;1.20;;;33.30;39.90;;;;;;6068407;23;20014;-85
2021/05/10 11:24:38;;;;;;;3.33;1.40;;;34.20;38.70;;;;;;6067874;23;20026;-85
2021/05/10 11:27:24;;;;;;;4.63;1.33;;;34.10;37.30;;;;;;6091878;23;20202;-84
2021/05/10 11:29:53;;;;;;;2.70;1.10;;;32.30;38.80;;;;;;6091831;23;20049;-85
2021/05/10 11:32:27;;;;;;;2.50;1.23;;;32.90;39.00;;;;;;6089482;23;20014;-85
2021/05/10 11:35:24;;;;;;;4.75;1.63;;;33.90;38.00;;;;;;6064690;23;20231;-87
2021/05/10 11:38:09;;;;;;;3.05;1.42;;;35.20;36.20;;;;;;6066199;23;20246;-85
2021/05/10 11:40:41;;;;;;;3.30;1.30;;;36.00;36.20;;;;;;6090062;23;20021;-86
2021/05/10 11:43:20;;;;;;;6.00;1.65;;;36.00;35.00;;;;;;6086376;23;20025;-84
2021/05/10 11:45:49;;;;;;;7.05;1.60;;;35.00;36.10;;;;;;6089048;23;20247;-84
2021/05/10 11:48:38;;;;;;;3.50;1.50;;;34.80;36.20;;;;;;6066562;23;20014;-86
2021/05/10 11:51:20;;;;;;;3.78;1.23;;;35.50;35.30;;;;;;6070816;23;20014;-86
2021/05/10 11:54:03;;;;;;;3.35;1.38;;;34.90;35.00;;;;;;6098721;23;20032;-87
2021/05/10 11:56:41;;;;;;;5.18;1.40;;;33.80;36.20;;;;;;6072434;23;20017;-88
2021/05/10 11:59:41;;;;;;;3.97;1.50;;;33.10;37.30;;;;;;6113831;23;20014;-85
2021/05/10 12:02:27;;;;;;;6.57;1.48;;;32.70;37.70;;;;;;6089982;23;20013;-85
2021/05/10 12:05:17;;;;;;;5.53;1.83;;;33.80;36.90;;;;;;6118157;23;20026;-85
2021/05/10 12:07:51;;;;;;;4.25;1.67;;;34.40;36.30;;;;;;6113426;23;20238;-84
2021/05/10 12:10:22;;;;;;;3.70;1.20;;;35.20;35.40;;;;;;6063366;23;20018;-85
2021/05/10 12:12:50;;;;;;;3.45;1.65;;;34.40;36.00;;;;;;6086514;23;20029;-86
2021/05/10 12:15:30;;;;;;;3.05;1.20;;;35.10;35.70;;;;;;6064149;23;20021;-90
2021/05/10 12:18:04;;;;;;;6.35;1.40;;;36.80;34.50;;;;;;6061830;23;20042;-88
2021/05/10 12:20:33;;;;;;;4.93;1.30;;;38.10;33.30;;;;;;6084672;23;20034;-87
2021/05/10 12:23:13;;;;;;;2.28;1.10;;;37.70;32.60;;;;;;6107983;23;20050;-87
2021/05/10 12:25:42;;;;;;;3.60;1.23;;;36.90;33.60;;;;;;6037325;23;20025;-85
2021/05/10 12:28:12;;;;;;;4.05;1.42;;;37.40;33.50;;;;;;6082769;23;20058;-84
2021/05/10 12:30:54;;;;;;;3.67;1.20;;;38.30;33.20;;;;;;6077971;23;20045;-85
2021/05/10 12:33:27;;;;;;;6.07;1.27;;;40.20;32.10;;;;;;6034076;23;20047;-84
2021/05/10 12:35:59;;;;;;;5.93;1.80;;;42.00;31.30;;;;;;6080888;23;20042;-84
2021/05/10 12:38:29;;;;;;;2.60;1.20;;;43.10;30.30;;;;;;6059435;23;20070;-84
2021/05/10 12:41:01;;;;;;;6.00;1.27;;;42.50;29.50;;;;;;6073219;23;20014;-84
2021/05/10 12:43:31;;;;;;;5.05;1.30;;;43.00;29.80;;;;;;6088632;23;20019;-85
2021/05/10 12:46:02;;;;;;;5.97;1.65;;;44.00;29.30;;;;;;6109351;23;20040;-86
2021/05/10 12:48:34;;;;;;;2.97;1.40;;;44.90;29.00;;;;;;6060352;23;20389;-84
2021/05/10 12:51:07;;;;;;;2.60;1.10;;;45.60;28.50;;;;;;6081160;23;20038;-85
2021/05/10 12:53:37;;;;;;;2.80;1.30;;;45.70;28.20;;;;;;6082284;23;20046;-87
2021/05/10 12:56:10;;;;;;;5.22;1.13;;;45.90;28.20;;;;;;6058552;23;20038;-86
2021/05/10 12:58:40;;;;;;;3.45;1.30;;;45.50;28.00;;;;;;6081445;23;20054;-87
2021/05/10 13:01:16;;;;;;;5.22;1.58;;;45.10;28.40;;;;;;6059301;23;20050;-85
2021/05/10 13:03:46;;;;;;;9.10;1.48;;;45.10;27.80;;;;;;6064971;23;20018;-85
2021/05/10 13:06:21;;;;;;;4.68;1.40;;;45.00;28.10;;;;;;6061504;23;20029;-86
2021/05/10 13:08:53;;;;;;;7.05;1.73;;;45.20;28.20;;;;;;6063669;23;20038;-85
2021/05/10 13:11:24;;;;;;;6.05;2.40;;;45.80;28.00;;;;;;6108424;23;20018;-86
2021/05/10 13:13:57;;;;;;;2.50;1.08;;;46.10;27.70;;;;;;6082687;23;20054;-85